Fesco Vladimir — 5BSL2 — position and weather

sailwx.info

Track history (hours):
 
Tides and Currents Weather Stations Pressure Air Temp Water Temp Dewpoint Dewpoint Depression Visibility Wind Speed Wind Dir Waves Ship Positions

Fesco Vladimir

Last reported at 2016-Aug-30 23:32 UTC. Time now 2016-Aug-31 00:35 UTC.
Position N 59°56' E 029°42'.

Length 184 m; draft 8.6 m.

Type: Ship (hazmat cat A). MMSI: 209777000.

Date/timePositionNaut miles runAvg speedWind from/ knotsBaromVisibWave heightAir tempDewpointWater temp
2016-Aug-30 23:32N 59°56' E 029°42'0 0.0
2016-Aug-30 22:29N 59°56' E 029°42'0 0.0
2016-Aug-30 21:29N 59°56' E 029°42'0 0.0
2016-Aug-30 20:32N 59°56' E 029°42'2 2.1
2016-Aug-30 19:33N 59°58' E 029°45'2 2.0
2016-Aug-30 18:33N 59°58' E 029°49'9 9.3
2016-Aug-30 17:33N 59°54' E 030°06'4 3.8
2016-Aug-30 16:31N 59°52' E 030°12'0 0.0
2016-Aug-30 15:31N 59°52' E 030°12'0 0.0
2016-Aug-30 14:28N 59°52' E 030°12'0 0.0
2016-Aug-30 13:31N 59°52' E 030°12'0 0.0
2016-Aug-30 12:31N 59°52' E 030°12'0 0.0
2016-Aug-30 11:31N 59°52' E 030°12'0 0.0
2016-Aug-30 10:31N 59°52' E 030°12'0 0.0
2016-Aug-30 09:31N 59°52' E 030°12'0 0.0
2016-Aug-30 08:28N 59°52' E 030°12'0 0.0
2016-Aug-30 07:31N 59°52' E 030°12'0 0.0
2016-Aug-30 06:31N 59°52' E 030°12'0 0.0
2016-Aug-30 05:31N 59°52' E 030°12'0 0.0
2016-Aug-30 04:31N 59°52' E 030°12'0 0.0
2016-Aug-30 03:31N 59°52' E 030°12'0 0.0
2016-Aug-30 02:31N 59°52' E 030°12'0 0.0
2016-Aug-30 01:31N 59°52' E 030°12'0 0.0
2016-Aug-30 00:31N 59°52' E 030°12'0 0.0
2016-Aug-29 23:28N 59°52' E 030°12'0 0.0
2016-Aug-29 22:31N 59°52' E 030°12'0 0.0
2016-Aug-29 21:33N 59°52' E 030°12'0 0.5
2016-Aug-29 20:33N 59°53' E 030°12'0 0.0
2016-Aug-29 19:33N 59°53' E 030°12'0 0.0
2016-Aug-29 18:33N 59°53' E 030°12'0 0.0
2016-Aug-29 17:33N 59°53' E 030°12'0 0.0
2016-Aug-29 16:32N 59°53' E 030°12'0 0.0
2016-Aug-29 15:32N 59°53' E 030°12'0 0.0
2016-Aug-29 14:26N 59°53' E 030°12'0 0.0
2016-Aug-29 13:32N 59°53' E 030°12'0 0.0
2016-Aug-29 12:32N 59°53' E 030°12'0 0.0
2016-Aug-29 11:32N 59°53' E 030°12'0 0.0
2016-Aug-29 10:26N 59°53' E 030°12'0 0.0
2016-Aug-29 09:32N 59°53' E 030°12'0 0.0
2016-Aug-29 08:32N 59°53' E 030°12'0 0.1
2016-Aug-29 07:33N 59°53' E 030°12'3 3.3
2016-Aug-29 06:33N 59°54' E 030°06'1010.4
2016-Aug-29 05:33N 59°58' E 029°47'1110.3
2016-Aug-29 04:31N 60°01' E 029°27'7 7.2
2016-Aug-29 03:33N 60°02' E 029°13'8 7.7
2016-Aug-29 02:33N 60°02' E 028°57'8 7.8
2016-Aug-29 01:33N 60°02' E 028°41'10 9.6
2016-Aug-29 00:33N 59°54' E 028°31'1312.6
2016-Aug-28 23:33N 59°42' E 028°24'1 1.2
2016-Aug-28 22:33N 59°40' E 028°24'0 0.0
2016-Aug-28 21:33N 59°40' E 028°24'0 0.0
2016-Aug-28 20:24N 59°40' E 028°24'0 0.0
2016-Aug-28 19:24N 59°40' E 028°24'0 0.0
2016-Aug-28 18:27N 59°40' E 028°24'0 0.0
2016-Aug-28 17:27N 59°40' E 028°24'0 0.0
2016-Aug-28 16:27N 59°40' E 028°24'0 0.0
2016-Aug-28 15:30N 59°40' E 028°24'0 0.0
2016-Aug-28 14:27N 59°40' E 028°24'0 0.0
2016-Aug-28 13:30N 59°40' E 028°24'0 0.0
2016-Aug-28 12:33N 59°40' E 028°24'6 5.6
2016-Aug-28 11:33N 59°46' E 028°24'1313.4
2016-Aug-28 10:33N 59°58' E 028°35'10 9.9
2016-Aug-28 09:33N 60°05' E 028°20'1312.5
2016-Aug-28 08:33N 60°09' E 027°57'1212.4
2016-Aug-28 07:33N 60°06' E 027°33'1413.4
2016-Aug-28 06:33N 59°59' E 027°09'1413.6
2016-Aug-28 05:34N 59°59' E 026°42'5115.1
2016-Aug-28 02:11N 59°47' E 025°04'915.0
2016-Aug-28 01:33N 59°45' E 024°46'1514.9
2016-Aug-28 00:34N 59°42' E 024°17'1514.9
2016-Aug-27 23:34N 59°37' E 023°49'1515.2
2016-Aug-27 22:33N 59°32' E 023°20'3714.9
2016-Aug-27 20:06N 59°16' E 022°16'2415.3
2016-Aug-27 18:34N 59°01' E 021°40'14315.6
2016-Aug-27 09:24N 57°07' E 018°60'2915.7
2016-Aug-27 07:34N 56°45' E 018°24'4815.8
2016-Aug-27 04:33N 56°16' E 017°16'1615.8
2016-Aug-27 03:34N 56°07' E 016°54'1815.9
2016-Aug-27 02:27N 55°57' E 016°27'1415.7
2016-Aug-27 01:33N 55°50' E 016°06'1615.8
2016-Aug-27 00:33N 55°42' E 015°41'1616.3
2016-Aug-26 23:33N 55°34' E 015°16'1615.9
2016-Aug-26 22:34N 55°27' E 014°51'1515.3
2016-Aug-26 21:34N 55°16' E 014°31'1615.5
2016-Aug-26 20:34N 55°04' E 014°15'1514.8
2016-Aug-26 19:34N 54°57' E 013°52'1615.7
2016-Aug-26 18:33N 54°52' E 013°26'1615.7
2016-Aug-26 17:31N 54°47' E 012°59'1515.3
2016-Aug-26 16:34N 54°41' E 012°36'1514.5
2016-Aug-26 15:33N 54°32' E 012°17'1312.8
2016-Aug-26 14:33N 54°24' E 011°59'1515.0
2016-Aug-26 13:33N 54°29' E 011°34'1515.2
2016-Aug-26 12:34N 54°35' E 011°10'1413.9
2016-Aug-26 11:34N 54°44' E 010°51'1414.0
2016-Aug-26 10:34N 54°57' E 010°57'1413.7
2016-Aug-26 09:34N 55°11' E 011°03'1312.9
2016-Aug-26 08:33N 55°23' E 011°00'1414.3
2016-Aug-26 07:34N 55°36' E 010°48'1413.5
2016-Aug-26 06:34N 55°49' E 010°48'2914.4
2016-Aug-26 04:33N 56°13' E 011°18'1514.9
2016-Aug-26 03:33N 56°26' E 011°32'1514.6
2016-Aug-26 02:33N 56°39' E 011°45'1413.8
2016-Aug-26 01:33N 56°52' E 011°48'1515.4
2016-Aug-26 00:33N 57°07' E 011°38'1515.4
2016-Aug-25 23:34N 57°21' E 011°28'1414.4
2016-Aug-25 22:33N 57°33' E 011°12'1514.9
2016-Aug-25 21:33N 57°43' E 010°52'1514.9
2016-Aug-25 20:33N 57°48' E 010°26'1615.9
2016-Aug-25 19:33N 57°46' E 009°56'1514.8
2016-Aug-25 18:33N 57°42' E 009°29'2814.0
2016-Aug-25 16:33N 57°29' E 008°44'1414.1
2016-Aug-25 15:33N 57°20' E 008°23'1414.5
2016-Aug-25 14:33N 57°09' E 008°06'4414.5
2016-Aug-25 11:30N 56°30' E 007°26'1914.8
2016-Aug-25 10:14N 56°13' E 007°14'1114.9
2016-Aug-25 09:29N 56°03' E 007°07'1414.9
2016-Aug-25 08:33N 55°50' E 006°58'1515.2
2016-Aug-25 07:33N 55°35' E 006°48'1515.5
2016-Aug-25 06:33N 55°20' E 006°41'3216.2
2016-Aug-25 04:34N 54°49' E 006°52'1615.5
2016-Aug-25 03:34N 54°35' E 007°05'1615.6
2016-Aug-25 02:33N 54°23' E 007°22'1515.1
2016-Aug-25 01:33N 54°12' E 007°39'1514.8
2016-Aug-25 00:34N 54°03' E 008°00'1413.9
2016-Aug-24 23:33N 53°59' E 008°23'1515.4
2016-Aug-24 22:34N 53°51' E 008°45'1616.2
2016-Aug-24 21:34N 53°53' E 009°12'1616.2
2016-Aug-24 20:33N 53°41' E 009°30'1211.6
2016-Aug-24 19:33N 53°34' E 009°46'6 5.8
2016-Aug-24 18:33N 53°32' E 009°55'0 0.0
2016-Aug-24 17:32N 53°32' E 009°55'0 0.0
2016-Aug-24 16:32N 53°32' E 009°55'0 0.0
2016-Aug-24 15:32N 53°32' E 009°55'0 0.0
2016-Aug-24 14:32N 53°32' E 009°55'0 0.0
2016-Aug-24 13:32N 53°32' E 009°55'0 0.0
2016-Aug-24 12:32N 53°32' E 009°55'3 2.7
2016-Aug-24 11:33N 53°33' E 009°51'1010.5
2016-Aug-24 10:34N 53°36' E 009°35'1413.6
2016-Aug-24 09:33N 53°48' E 009°23'1111.4
2016-Aug-24 08:33N 53°52' E 009°05'1313.0
2016-Aug-24 07:34N 53°53' E 008°43'1212.2
2016-Aug-24 06:33N 53°59' E 008°24'2311.7
2016-Aug-24 04:33N 53°57' E 007°45'1212.4
2016-Aug-24 03:33N 53°55' E 007°24'1312.9
2016-Aug-24 02:34N 53°52' E 007°03'1313.4
2016-Aug-24 01:34N 53°48' E 006°41'1413.7
2016-Aug-24 00:34N 53°45' E 006°19'1414.0
2016-Aug-23 23:33N 53°40' E 005°56'1514.8
2016-Aug-23 22:33N 53°35' E 005°33'1514.9
2016-Aug-23 21:33N 53°30' E 005°09'1515.2
2016-Aug-23 20:33N 53°25' E 004°45'1615.8
2016-Aug-23 19:33N 53°11' E 004°31'1717.2
2016-Aug-23 18:33N 52°56' E 004°17'3516.4
2016-Aug-23 16:27N 52°25' E 003°54'1415.6
2016-Aug-23 15:33N 52°11' E 003°54'1111.1
2016-Aug-23 14:33N 52°01' E 004°01'4 4.0
2016-Aug-23 13:33N 51°57' E 004°03'0 0.0
2016-Aug-23 12:32N 51°57' E 004°03'0 0.0
2016-Aug-23 11:32N 51°57' E 004°03'0 0.0
2016-Aug-23 10:31N 51°57' E 004°03'0 0.0
2016-Aug-23 09:32N 51°57' E 004°03'0 0.0
2016-Aug-23 08:31N 51°57' E 004°03'0 0.0
2016-Aug-23 07:32N 51°57' E 004°03'0 0.0
2016-Aug-23 06:32N 51°57' E 004°03'0 0.0
2016-Aug-23 05:32N 51°57' E 004°03'0 0.0
2016-Aug-23 04:32N 51°57' E 004°03'0 0.0
2016-Aug-23 03:32N 51°57' E 004°03'0 0.0
2016-Aug-23 02:32N 51°57' E 004°03'0 0.0
2016-Aug-23 01:31N 51°57' E 004°03'0 0.0
2016-Aug-23 00:31N 51°57' E 004°03'0 0.0
2016-Aug-22 23:31N 51°57' E 004°03'0 0.0
2016-Aug-22 22:32N 51°57' E 004°03'0 0.0
2016-Aug-22 21:33N 51°57' E 004°03'0 0.0
2016-Aug-22 20:33N 51°57' E 004°03'0 0.0
2016-Aug-22 19:33N 51°57' E 004°03'0 0.0
2016-Aug-22 18:33N 51°57' E 004°03'0 0.0
2016-Aug-22 17:33N 51°57' E 004°03'0 0.0
2016-Aug-22 16:33N 51°57' E 004°03'0 0.0
2016-Aug-22 15:30N 51°57' E 004°03'1 1.4
2016-Aug-22 14:32N 51°58' E 004°04'0 0.0
2016-Aug-22 13:32N 51°58' E 004°04'0 0.0
2016-Aug-22 12:32N 51°58' E 004°04'0 0.0
2016-Aug-22 11:32N 51°58' E 004°04'0 0.0
2016-Aug-22 10:32N 51°58' E 004°04'0 0.0
2016-Aug-22 09:32N 51°58' E 004°04'2 2.0
2016-Aug-22 08:32N 51°59' E 004°02'0 0.0
2016-Aug-22 07:32N 51°59' E 004°02'0 0.0
2016-Aug-22 06:31N 51°59' E 004°02'0 0.0
2016-Aug-22 05:31N 51°59' E 004°02'0 0.0
2016-Aug-22 04:31N 51°59' E 004°02'0 0.0
2016-Aug-22 03:31N 51°59' E 004°02'0 0.0
2016-Aug-22 02:31N 51°59' E 004°02'0 0.0
2016-Aug-22 01:32N 51°59' E 004°02'0 0.0
2016-Aug-22 00:32N 51°59' E 004°02'0 0.0
2016-Aug-21 23:32N 51°59' E 004°02'0 0.0
2016-Aug-21 22:32N 51°59' E 004°02'0 0.0
2016-Aug-21 21:32N 51°59' E 004°02'0 0.0
2016-Aug-21 20:32N 51°59' E 004°02'0 0.0
2016-Aug-21 19:32N 51°59' E 004°02'0 0.0
2016-Aug-21 18:32N 51°59' E 004°02'0 0.0
2016-Aug-21 17:32N 51°59' E 004°02'0 0.0
2016-Aug-21 16:32N 51°59' E 004°02'0 0.0
2016-Aug-21 15:32N 51°59' E 004°02'0 0.0
2016-Aug-21 14:32N 51°59' E 004°02'0 0.0
2016-Aug-21 13:32N 51°59' E 004°02'0 0.0
2016-Aug-21 12:32N 51°59' E 004°02'0 0.0
2016-Aug-21 11:31N 51°59' E 004°02'0 0.0
2016-Aug-21 10:32N 51°59' E 004°02'0 0.0
2016-Aug-21 09:32N 51°59' E 004°02'0 0.0
2016-Aug-21 08:32N 51°59' E 004°02'0 0.0
2016-Aug-21 07:31N 51°59' E 004°02'0 0.0
2016-Aug-21 06:33N 51°59' E 004°02'2 1.8
2016-Aug-21 05:34N 51°60' E 003°60'9 9.2
2016-Aug-21 04:33N 52°04' E 003°47'9 8.6
2016-Aug-21 03:33N 52°12' E 003°40'0 0.4
2016-Aug-21 02:29N 52°12' E 003°41'  
Track history (hours):
 
Tides and Currents Weather Stations Pressure Air Temp Water Temp Dewpoint Dewpoint Depression Visibility Wind Speed Wind Dir Waves Ship Positions

Fesco Vladimir

Last reported at 2016-Aug-30 23:32 UTC. Time now 2016-Aug-31 00:35 UTC.
Position N 59°56' E 029°42'.

Length 184 m; draft 8.6 m.

Type: Ship (hazmat cat A). MMSI: 209777000.

Date/timePositionNaut miles runAvg speedWind from/ knotsBaromVisibWave heightAir tempDewpointWater temp
2016-Aug-30 23:32N 59°56' E 029°42'0 0.0
2016-Aug-30 22:29N 59°56' E 029°42'0 0.0
2016-Aug-30 21:29N 59°56' E 029°42'0 0.0
2016-Aug-30 20:32N 59°56' E 029°42'2 2.1
2016-Aug-30 19:33N 59°58' E 029°45'2 2.0
2016-Aug-30 18:33N 59°58' E 029°49'9 9.3
2016-Aug-30 17:33N 59°54' E 030°06'4 3.8
2016-Aug-30 16:31N 59°52' E 030°12'0 0.0
2016-Aug-30 15:31N 59°52' E 030°12'0 0.0
2016-Aug-30 14:28N 59°52' E 030°12'0 0.0
2016-Aug-30 13:31N 59°52' E 030°12'0 0.0
2016-Aug-30 12:31N 59°52' E 030°12'0 0.0
2016-Aug-30 11:31N 59°52' E 030°12'0 0.0
2016-Aug-30 10:31N 59°52' E 030°12'0 0.0
2016-Aug-30 09:31N 59°52' E 030°12'0 0.0
2016-Aug-30 08:28N 59°52' E 030°12'0 0.0
2016-Aug-30 07:31N 59°52' E 030°12'0 0.0
2016-Aug-30 06:31N 59°52' E 030°12'0 0.0
2016-Aug-30 05:31N 59°52' E 030°12'0 0.0
2016-Aug-30 04:31N 59°52' E 030°12'0 0.0
2016-Aug-30 03:31N 59°52' E 030°12'0 0.0
2016-Aug-30 02:31N 59°52' E 030°12'0 0.0
2016-Aug-30 01:31N 59°52' E 030°12'0 0.0
2016-Aug-30 00:31N 59°52' E 030°12'0 0.0
2016-Aug-29 23:28N 59°52' E 030°12'0 0.0
2016-Aug-29 22:31N 59°52' E 030°12'0 0.0
2016-Aug-29 21:33N 59°52' E 030°12'0 0.5
2016-Aug-29 20:33N 59°53' E 030°12'0 0.0
2016-Aug-29 19:33N 59°53' E 030°12'0 0.0
2016-Aug-29 18:33N 59°53' E 030°12'0 0.0
2016-Aug-29 17:33N 59°53' E 030°12'0 0.0
2016-Aug-29 16:32N 59°53' E 030°12'0 0.0
2016-Aug-29 15:32N 59°53' E 030°12'0 0.0
2016-Aug-29 14:26N 59°53' E 030°12'0 0.0
2016-Aug-29 13:32N 59°53' E 030°12'0 0.0
2016-Aug-29 12:32N 59°53' E 030°12'0 0.0
2016-Aug-29 11:32N 59°53' E 030°12'0 0.0
2016-Aug-29 10:26N 59°53' E 030°12'0 0.0
2016-Aug-29 09:32N 59°53' E 030°12'0 0.0
2016-Aug-29 08:32N 59°53' E 030°12'0 0.1
2016-Aug-29 07:33N 59°53' E 030°12'3 3.3
2016-Aug-29 06:33N 59°54' E 030°06'1010.4
2016-Aug-29 05:33N 59°58' E 029°47'1110.3
2016-Aug-29 04:31N 60°01' E 029°27'7 7.2
2016-Aug-29 03:33N 60°02' E 029°13'8 7.7
2016-Aug-29 02:33N 60°02' E 028°57'8 7.8
2016-Aug-29 01:33N 60°02' E 028°41'10 9.6
2016-Aug-29 00:33N 59°54' E 028°31'1312.6
2016-Aug-28 23:33N 59°42' E 028°24'1 1.2
2016-Aug-28 22:33N 59°40' E 028°24'0 0.0
2016-Aug-28 21:33N 59°40' E 028°24'0 0.0
2016-Aug-28 20:24N 59°40' E 028°24'0 0.0
2016-Aug-28 19:24N 59°40' E 028°24'0 0.0
2016-Aug-28 18:27N 59°40' E 028°24'0 0.0
2016-Aug-28 17:27N 59°40' E 028°24'0 0.0
2016-Aug-28 16:27N 59°40' E 028°24'0 0.0
2016-Aug-28 15:30N 59°40' E 028°24'0 0.0
2016-Aug-28 14:27N 59°40' E 028°24'0 0.0
2016-Aug-28 13:30N 59°40' E 028°24'0 0.0
2016-Aug-28 12:33N 59°40' E 028°24'6 5.6
2016-Aug-28 11:33N 59°46' E 028°24'1313.4
2016-Aug-28 10:33N 59°58' E 028°35'10 9.9
2016-Aug-28 09:33N 60°05' E 028°20'1312.5
2016-Aug-28 08:33N 60°09' E 027°57'1212.4
2016-Aug-28 07:33N 60°06' E 027°33'1413.4
2016-Aug-28 06:33N 59°59' E 027°09'1413.6
2016-Aug-28 05:34N 59°59' E 026°42'5115.1
2016-Aug-28 02:11N 59°47' E 025°04'915.0
2016-Aug-28 01:33N 59°45' E 024°46'1514.9
2016-Aug-28 00:34N 59°42' E 024°17'1514.9
2016-Aug-27 23:34N 59°37' E 023°49'1515.2
2016-Aug-27 22:33N 59°32' E 023°20'3714.9
2016-Aug-27 20:06N 59°16' E 022°16'2415.3
2016-Aug-27 18:34N 59°01' E 021°40'14315.6
2016-Aug-27 09:24N 57°07' E 018°60'2915.7
2016-Aug-27 07:34N 56°45' E 018°24'4815.8
2016-Aug-27 04:33N 56°16' E 017°16'1615.8
2016-Aug-27 03:34N 56°07' E 016°54'1815.9
2016-Aug-27 02:27N 55°57' E 016°27'1415.7
2016-Aug-27 01:33N 55°50' E 016°06'1615.8
2016-Aug-27 00:33N 55°42' E 015°41'1616.3
2016-Aug-26 23:33N 55°34' E 015°16'1615.9
2016-Aug-26 22:34N 55°27' E 014°51'1515.3
2016-Aug-26 21:34N 55°16' E 014°31'1615.5
2016-Aug-26 20:34N 55°04' E 014°15'1514.8
2016-Aug-26 19:34N 54°57' E 013°52'1615.7
2016-Aug-26 18:33N 54°52' E 013°26'1615.7
2016-Aug-26 17:31N 54°47' E 012°59'1515.3
2016-Aug-26 16:34N 54°41' E 012°36'1514.5
2016-Aug-26 15:33N 54°32' E 012°17'1312.8
2016-Aug-26 14:33N 54°24' E 011°59'1515.0
2016-Aug-26 13:33N 54°29' E 011°34'1515.2
2016-Aug-26 12:34N 54°35' E 011°10'1413.9
2016-Aug-26 11:34N 54°44' E 010°51'1414.0
2016-Aug-26 10:34N 54°57' E 010°57'1413.7
2016-Aug-26 09:34N 55°11' E 011°03'1312.9
2016-Aug-26 08:33N 55°23' E 011°00'1414.3
2016-Aug-26 07:34N 55°36' E 010°48'1413.5
2016-Aug-26 06:34N 55°49' E 010°48'2914.4
2016-Aug-26 04:33N 56°13' E 011°18'1514.9
2016-Aug-26 03:33N 56°26' E 011°32'1514.6
2016-Aug-26 02:33N 56°39' E 011°45'1413.8
2016-Aug-26 01:33N 56°52' E 011°48'1515.4
2016-Aug-26 00:33N 57°07' E 011°38'1515.4
2016-Aug-25 23:34N 57°21' E 011°28'1414.4
2016-Aug-25 22:33N 57°33' E 011°12'1514.9
2016-Aug-25 21:33N 57°43' E 010°52'1514.9
2016-Aug-25 20:33N 57°48' E 010°26'1615.9
2016-Aug-25 19:33N 57°46' E 009°56'1514.8
2016-Aug-25 18:33N 57°42' E 009°29'2814.0
2016-Aug-25 16:33N 57°29' E 008°44'1414.1
2016-Aug-25 15:33N 57°20' E 008°23'1414.5
2016-Aug-25 14:33N 57°09' E 008°06'4414.5
2016-Aug-25 11:30N 56°30' E 007°26'1914.8
2016-Aug-25 10:14N 56°13' E 007°14'1114.9
2016-Aug-25 09:29N 56°03' E 007°07'1414.9
2016-Aug-25 08:33N 55°50' E 006°58'1515.2
2016-Aug-25 07:33N 55°35' E 006°48'1515.5
2016-Aug-25 06:33N 55°20' E 006°41'3216.2
2016-Aug-25 04:34N 54°49' E 006°52'1615.5
2016-Aug-25 03:34N 54°35' E 007°05'1615.6
2016-Aug-25 02:33N 54°23' E 007°22'1515.1
2016-Aug-25 01:33N 54°12' E 007°39'1514.8
2016-Aug-25 00:34N 54°03' E 008°00'1413.9
2016-Aug-24 23:33N 53°59' E 008°23'1515.4
2016-Aug-24 22:34N 53°51' E 008°45'1616.2
2016-Aug-24 21:34N 53°53' E 009°12'1616.2
2016-Aug-24 20:33N 53°41' E 009°30'1211.6
2016-Aug-24 19:33N 53°34' E 009°46'6 5.8
2016-Aug-24 18:33N 53°32' E 009°55'0 0.0
2016-Aug-24 17:32N 53°32' E 009°55'0 0.0
2016-Aug-24 16:32N 53°32' E 009°55'0 0.0
2016-Aug-24 15:32N 53°32' E 009°55'0 0.0
2016-Aug-24 14:32N 53°32' E 009°55'0 0.0
2016-Aug-24 13:32N 53°32' E 009°55'0 0.0
2016-Aug-24 12:32N 53°32' E 009°55'3 2.7
2016-Aug-24 11:33N 53°33' E 009°51'1010.5
2016-Aug-24 10:34N 53°36' E 009°35'1413.6
2016-Aug-24 09:33N 53°48' E 009°23'1111.4
2016-Aug-24 08:33N 53°52' E 009°05'1313.0
2016-Aug-24 07:34N 53°53' E 008°43'1212.2
2016-Aug-24 06:33N 53°59' E 008°24'2311.7
2016-Aug-24 04:33N 53°57' E 007°45'1212.4
2016-Aug-24 03:33N 53°55' E 007°24'1312.9
2016-Aug-24 02:34N 53°52' E 007°03'1313.4
2016-Aug-24 01:34N 53°48' E 006°41'1413.7
2016-Aug-24 00:34N 53°45' E 006°19'1414.0
2016-Aug-23 23:33N 53°40' E 005°56'1514.8
2016-Aug-23 22:33N 53°35' E 005°33'1514.9
2016-Aug-23 21:33N 53°30' E 005°09'1515.2
2016-Aug-23 20:33N 53°25' E 004°45'1615.8
2016-Aug-23 19:33N 53°11' E 004°31'1717.2
2016-Aug-23 18:33N 52°56' E 004°17'3516.4
2016-Aug-23 16:27N 52°25' E 003°54'1415.6
2016-Aug-23 15:33N 52°11' E 003°54'1111.1
2016-Aug-23 14:33N 52°01' E 004°01'4 4.0
2016-Aug-23 13:33N 51°57' E 004°03'0 0.0
2016-Aug-23 12:32N 51°57' E 004°03'0 0.0
2016-Aug-23 11:32N 51°57' E 004°03'0 0.0
2016-Aug-23 10:31N 51°57' E 004°03'0 0.0
2016-Aug-23 09:32N 51°57' E 004°03'0 0.0
2016-Aug-23 08:31N 51°57' E 004°03'0 0.0
2016-Aug-23 07:32N 51°57' E 004°03'0 0.0
2016-Aug-23 06:32N 51°57' E 004°03'0 0.0
2016-Aug-23 05:32N 51°57' E 004°03'0 0.0
2016-Aug-23 04:32N 51°57' E 004°03'0 0.0
2016-Aug-23 03:32N 51°57' E 004°03'0 0.0
2016-Aug-23 02:32N 51°57' E 004°03'0 0.0
2016-Aug-23 01:31N 51°57' E 004°03'0 0.0
2016-Aug-23 00:31N 51°57' E 004°03'0 0.0
2016-Aug-22 23:31N 51°57' E 004°03'0 0.0
2016-Aug-22 22:32N 51°57' E 004°03'0 0.0
2016-Aug-22 21:33N 51°57' E 004°03'0 0.0
2016-Aug-22 20:33N 51°57' E 004°03'0 0.0
2016-Aug-22 19:33N 51°57' E 004°03'0 0.0
2016-Aug-22 18:33N 51°57' E 004°03'0 0.0
2016-Aug-22 17:33N 51°57' E 004°03'0 0.0
2016-Aug-22 16:33N 51°57' E 004°03'0 0.0
2016-Aug-22 15:30N 51°57' E 004°03'1 1.4
2016-Aug-22 14:32N 51°58' E 004°04'0 0.0
2016-Aug-22 13:32N 51°58' E 004°04'0 0.0
2016-Aug-22 12:32N 51°58' E 004°04'0 0.0
2016-Aug-22 11:32N 51°58' E 004°04'0 0.0
2016-Aug-22 10:32N 51°58' E 004°04'0 0.0
2016-Aug-22 09:32N 51°58' E 004°04'2 2.0
2016-Aug-22 08:32N 51°59' E 004°02'0 0.0
2016-Aug-22 07:32N 51°59' E 004°02'0 0.0
2016-Aug-22 06:31N 51°59' E 004°02'0 0.0
2016-Aug-22 05:31N 51°59' E 004°02'0 0.0
2016-Aug-22 04:31N 51°59' E 004°02'0 0.0
2016-Aug-22 03:31N 51°59' E 004°02'0 0.0
2016-Aug-22 02:31N 51°59' E 004°02'0 0.0
2016-Aug-22 01:32N 51°59' E 004°02'0 0.0
2016-Aug-22 00:32N 51°59' E 004°02'0 0.0
2016-Aug-21 23:32N 51°59' E 004°02'0 0.0
2016-Aug-21 22:32N 51°59' E 004°02'0 0.0
2016-Aug-21 21:32N 51°59' E 004°02'0 0.0
2016-Aug-21 20:32N 51°59' E 004°02'0 0.0
2016-Aug-21 19:32N 51°59' E 004°02'0 0.0
2016-Aug-21 18:32N 51°59' E 004°02'0 0.0
2016-Aug-21 17:32N 51°59' E 004°02'0 0.0
2016-Aug-21 16:32N 51°59' E 004°02'0 0.0
2016-Aug-21 15:32N 51°59' E 004°02'0 0.0
2016-Aug-21 14:32N 51°59' E 004°02'0 0.0
2016-Aug-21 13:32N 51°59' E 004°02'0 0.0
2016-Aug-21 12:32N 51°59' E 004°02'0 0.0
2016-Aug-21 11:31N 51°59' E 004°02'0 0.0
2016-Aug-21 10:32N 51°59' E 004°02'0 0.0
2016-Aug-21 09:32N 51°59' E 004°02'0 0.0
2016-Aug-21 08:32N 51°59' E 004°02'0 0.0
2016-Aug-21 07:31N 51°59' E 004°02'0 0.0
2016-Aug-21 06:33N 51°59' E 004°02'2 1.8
2016-Aug-21 05:34N 51°60' E 003°60'9 9.2
2016-Aug-21 04:33N 52°04' E 003°47'9 8.6
2016-Aug-21 03:33N 52°12' E 003°40'0 0.4
2016-Aug-21 02:29N 52°12' E 003°41'  

Dump ship's entire track history